createdAt,value
2018-05-07T00:00:51.176Z,991.19
2018-05-07T00:01:57.897Z,991.18
2018-05-07T00:03:04.651Z,991.19
2018-05-07T00:04:11.427Z,991.17
2018-05-07T00:05:18.098Z,991.20
2018-05-07T00:06:24.861Z,991.18
2018-05-07T00:07:31.670Z,991.12
2018-05-07T00:08:38.378Z,991.16
2018-05-07T00:09:45.186Z,991.20
2018-05-07T00:10:51.947Z,991.14
2018-05-07T00:11:58.700Z,991.19
2018-05-07T00:13:05.512Z,991.21
2018-05-07T00:14:12.555Z,991.21
2018-05-07T00:15:19.123Z,991.21
2018-05-07T00:16:25.926Z,991.18
2018-05-07T00:17:32.714Z,991.15
2018-05-07T00:18:39.466Z,991.20
2018-05-07T00:19:46.209Z,991.12
2018-05-07T00:20:52.952Z,991.13
2018-05-07T00:21:59.780Z,991.16
2018-05-07T00:23:06.522Z,991.14
2018-05-07T00:24:13.304Z,991.16
2018-05-07T00:25:20.031Z,991.21
2018-05-07T00:26:26.835Z,991.14
2018-05-07T00:27:33.581Z,991.11
2018-05-07T00:28:40.384Z,991.06
2018-05-07T00:29:47.079Z,991.05
2018-05-07T00:30:53.827Z,990.99
2018-05-07T00:32:00.566Z,991.02
2018-05-07T00:33:07.389Z,991.05
2018-05-07T00:34:14.103Z,991.04
2018-05-07T00:35:21.031Z,991.02
2018-05-07T00:36:27.843Z,991.04
2018-05-07T00:37:34.695Z,991.10
2018-05-07T00:38:41.492Z,990.99
2018-05-07T00:39:48.335Z,990.99
2018-05-07T00:40:55.060Z,991.03
2018-05-07T00:42:01.791Z,991.02
2018-05-07T00:43:08.580Z,991.00
2018-05-07T00:44:15.291Z,991.00
2018-05-07T00:45:22.048Z,991.06
2018-05-07T00:46:28.778Z,991.05
2018-05-07T00:47:35.529Z,991.01
2018-05-07T00:48:42.283Z,991.08
2018-05-07T00:49:49.010Z,991.04
2018-05-07T00:50:55.982Z,990.99
2018-05-07T00:52:02.700Z,990.96
2018-05-07T00:53:09.440Z,990.99
2018-05-07T00:54:16.412Z,990.97
2018-05-07T00:55:23.177Z,990.96
2018-05-07T00:56:29.914Z,990.95
2018-05-07T00:57:36.638Z,990.97
2018-05-07T00:58:43.390Z,990.92
2018-05-07T00:59:50.202Z,990.98
2018-05-07T01:00:57.001Z,990.91
2018-05-07T01:02:03.743Z,990.95
2018-05-07T01:03:10.519Z,990.95
2018-05-07T01:04:17.299Z,990.92
2018-05-07T01:05:24.005Z,990.96
2018-05-07T01:06:30.787Z,990.94
2018-05-07T01:07:37.554Z,990.95
2018-05-07T01:08:44.420Z,990.98
2018-05-07T01:09:51.196Z,990.98
2018-05-07T01:10:58.010Z,990.97
2018-05-07T01:12:04.845Z,990.98
2018-05-07T01:13:11.628Z,990.91
2018-05-07T01:14:18.416Z,990.96
2018-05-07T01:15:25.260Z,990.96
2018-05-07T01:16:32.013Z,990.90
2018-05-07T01:17:38.827Z,990.96
2018-05-07T01:18:45.722Z,990.90
2018-05-07T01:19:52.495Z,990.95
2018-05-07T01:20:59.272Z,991.02
2018-05-07T01:22:06.151Z,990.95
2018-05-07T01:23:12.938Z,990.90
2018-05-07T01:24:19.707Z,990.90
2018-05-07T01:25:26.594Z,990.99
2018-05-07T01:26:33.306Z,990.95
2018-05-07T01:27:40.114Z,990.98
2018-05-07T01:28:46.942Z,990.99
2018-05-07T01:29:53.692Z,990.89
2018-05-07T01:31:00.647Z,991.01
2018-05-07T01:32:07.502Z,990.92
2018-05-07T01:33:14.302Z,990.88
2018-05-07T01:34:21.092Z,990.92
2018-05-07T01:35:27.935Z,990.91
2018-05-07T01:36:34.706Z,990.89
2018-05-07T01:37:41.510Z,990.91
2018-05-07T01:38:48.394Z,990.91
2018-05-07T01:39:55.199Z,990.86
2018-05-07T01:41:01.986Z,990.90
2018-05-07T01:42:08.834Z,990.94
2018-05-07T01:43:15.638Z,990.82
2018-05-07T01:44:22.407Z,990.90
2018-05-07T01:45:29.434Z,990.90
2018-05-07T01:46:36.240Z,990.90
2018-05-07T01:47:43.266Z,990.94
2018-05-07T01:48:50.035Z,990.91
2018-05-07T01:49:56.863Z,990.84
2018-05-07T01:51:03.642Z,990.87
2018-05-07T01:52:10.396Z,990.90
2018-05-07T01:53:17.157Z,990.89
2018-05-07T01:54:23.930Z,990.83
2018-05-07T01:55:30.707Z,990.87
2018-05-07T01:56:37.507Z,990.88
2018-05-07T01:57:44.360Z,990.92
2018-05-07T01:58:51.133Z,990.84
2018-05-07T01:59:57.975Z,990.87
2018-05-07T02:01:04.806Z,990.84
2018-05-07T02:02:11.577Z,990.88
2018-05-07T02:03:18.406Z,990.85
2018-05-07T02:04:25.263Z,990.86
2018-05-07T02:05:32.028Z,990.86
2018-05-07T02:06:38.839Z,990.88
2018-05-07T02:07:45.604Z,990.80
2018-05-07T02:08:52.385Z,990.84
2018-05-07T02:09:59.168Z,990.90
2018-05-07T02:11:05.947Z,990.83
2018-05-07T02:12:12.843Z,990.78
2018-05-07T02:13:19.644Z,990.79
2018-05-07T02:14:26.600Z,990.80
2018-05-07T02:15:33.343Z,990.78
2018-05-07T02:16:40.168Z,990.76
2018-05-07T02:17:46.932Z,990.79
2018-05-07T02:18:53.758Z,990.78
2018-05-07T02:20:00.990Z,990.76
2018-05-07T02:21:08.159Z,990.75
2018-05-07T02:22:14.962Z,990.75
2018-05-07T02:23:21.711Z,990.74
2018-05-07T02:24:28.499Z,990.79
2018-05-07T02:25:35.301Z,990.81
2018-05-07T02:26:42.044Z,990.77
2018-05-07T02:27:48.906Z,990.80
2018-05-07T02:28:55.703Z,990.84
2018-05-07T02:30:02.498Z,990.74
2018-05-07T02:31:09.335Z,990.73
2018-05-07T02:32:16.108Z,990.82
2018-05-07T02:33:22.911Z,990.81
2018-05-07T02:34:29.783Z,990.71
2018-05-07T02:35:36.651Z,990.75
2018-05-07T02:36:43.492Z,990.68
2018-05-07T02:37:50.229Z,990.80
2018-05-07T02:38:57.127Z,990.76
2018-05-07T02:40:03.839Z,990.77
2018-05-07T02:41:10.716Z,990.71
2018-05-07T02:42:17.479Z,990.69
2018-05-07T02:43:24.258Z,990.86
2018-05-07T02:44:31.079Z,990.79
2018-05-07T02:45:37.827Z,990.68
2018-05-07T02:46:44.576Z,990.74
2018-05-07T02:47:51.338Z,990.71
2018-05-07T02:48:58.138Z,990.69
2018-05-07T02:50:05.308Z,990.69
2018-05-07T02:51:12.067Z,990.67
2018-05-07T02:52:18.803Z,990.64
2018-05-07T02:53:25.590Z,990.65
2018-05-07T02:54:32.363Z,990.60
2018-05-07T02:55:39.168Z,990.62
2018-05-07T02:56:45.910Z,990.66
2018-05-07T02:57:52.707Z,990.63
2018-05-07T02:58:59.495Z,990.62
2018-05-07T03:00:06.301Z,990.69
2018-05-07T03:01:13.071Z,990.68
2018-05-07T03:02:19.865Z,990.75
2018-05-07T03:03:26.821Z,990.67
2018-05-07T03:04:33.633Z,990.67
2018-05-07T03:05:40.528Z,990.64
2018-05-07T03:06:47.303Z,990.66
2018-05-07T03:07:54.148Z,990.60
2018-05-07T03:09:01.026Z,990.64
2018-05-07T03:10:07.732Z,990.68
2018-05-07T03:11:14.539Z,990.64
2018-05-07T03:12:21.282Z,990.62
2018-05-07T03:13:28.145Z,990.69
2018-05-07T03:14:34.938Z,990.68
2018-05-07T03:15:41.742Z,990.61
2018-05-07T03:16:48.602Z,990.64
2018-05-07T03:17:55.372Z,990.62
2018-05-07T03:19:02.139Z,990.60
2018-05-07T03:20:08.923Z,990.59
2018-05-07T03:21:15.732Z,990.57
2018-05-07T03:22:22.667Z,990.52
2018-05-07T03:23:29.547Z,990.63
2018-05-07T03:24:36.323Z,990.60
2018-05-07T03:25:43.062Z,990.62
2018-05-07T03:26:49.825Z,990.62
2018-05-07T03:27:56.646Z,990.61
2018-05-07T03:29:08.467Z,990.59
2018-05-07T03:30:15.363Z,990.58
2018-05-07T03:31:22.185Z,990.61
2018-05-07T03:32:24.103Z,990.67
2018-05-07T03:33:30.967Z,990.71
2018-05-07T03:34:37.812Z,990.63
2018-05-07T03:35:44.615Z,990.63
2018-05-07T03:36:51.436Z,990.66
2018-05-07T03:37:58.221Z,990.58
2018-05-07T03:39:05.015Z,990.60
2018-05-07T03:40:12.022Z,990.62
2018-05-07T03:41:18.911Z,990.64
2018-05-07T03:42:25.733Z,990.55
2018-05-07T03:43:32.635Z,990.58
2018-05-07T03:44:39.540Z,990.52
2018-05-07T03:45:46.459Z,990.56
2018-05-07T03:46:53.346Z,990.55
2018-05-07T03:48:00.510Z,990.49
2018-05-07T03:49:07.191Z,990.56
2018-05-07T03:50:13.959Z,990.55
2018-05-07T03:51:20.993Z,990.49
2018-05-07T03:52:27.783Z,990.47
2018-05-07T03:53:34.572Z,990.53
2018-05-07T03:54:41.306Z,990.53
2018-05-07T03:55:48.178Z,990.52
2018-05-07T03:56:54.946Z,990.49
2018-05-07T03:58:01.720Z,990.55
2018-05-07T03:59:08.623Z,990.58
2018-05-07T04:00:15.383Z,990.50
2018-05-07T04:01:22.140Z,990.50
2018-05-07T04:02:28.911Z,990.56
2018-05-07T04:03:35.735Z,990.52
2018-05-07T04:04:42.748Z,990.52
2018-05-07T04:05:49.583Z,990.56
2018-05-07T04:06:56.411Z,990.53
2018-05-07T04:08:03.327Z,990.58
2018-05-07T04:09:10.238Z,990.64
2018-05-07T04:10:17.118Z,990.55
2018-05-07T04:11:23.959Z,990.57
2018-05-07T04:12:30.702Z,990.56
2018-05-07T04:13:37.613Z,990.49
2018-05-07T04:14:44.423Z,990.48
2018-05-07T04:15:51.238Z,990.44
2018-05-07T04:16:58.058Z,990.45
2018-05-07T04:19:10.316Z,990.42
2018-05-07T04:20:17.255Z,990.45
2018-05-07T04:21:24.371Z,990.44
2018-05-07T04:22:31.375Z,990.49
2018-05-07T04:23:38.547Z,990.50
2018-05-07T04:24:45.540Z,990.54
2018-05-07T04:25:52.358Z,990.55
2018-05-07T04:26:59.134Z,990.48
2018-05-07T04:28:05.891Z,990.53
2018-05-07T04:29:12.690Z,990.53
2018-05-07T04:30:19.527Z,990.53
2018-05-07T04:31:26.283Z,990.53
2018-05-07T04:32:33.065Z,990.46
2018-05-07T04:33:39.917Z,990.50
2018-05-07T04:34:46.736Z,990.47
2018-05-07T04:35:53.491Z,990.53
2018-05-07T04:37:00.243Z,990.48
2018-05-07T04:38:07.104Z,990.44
2018-05-07T04:39:13.894Z,990.44
2018-05-07T04:40:20.688Z,990.48
2018-05-07T04:41:27.686Z,990.49
2018-05-07T04:42:34.469Z,990.46
2018-05-07T04:43:41.333Z,990.52
2018-05-07T04:44:48.158Z,990.51
2018-05-07T04:45:55.008Z,990.49
2018-05-07T04:47:01.777Z,990.49
2018-05-07T04:48:08.563Z,990.47
2018-05-07T04:49:15.347Z,990.49
2018-05-07T04:50:22.135Z,990.43
2018-05-07T04:51:28.926Z,990.46
2018-05-07T04:52:35.715Z,990.50
2018-05-07T04:53:42.475Z,990.45
2018-05-07T04:54:49.306Z,990.47
2018-05-07T04:55:56.075Z,990.46
2018-05-07T04:57:02.871Z,990.49
2018-05-07T04:58:09.666Z,990.48
2018-05-07T04:59:16.511Z,990.56
2018-05-07T05:00:23.345Z,990.56
2018-05-07T05:01:30.679Z,990.54
2018-05-07T05:02:37.146Z,990.48
2018-05-07T05:03:43.905Z,990.58
2018-05-07T05:04:51.050Z,990.59
2018-05-07T05:05:57.838Z,990.59
2018-05-07T05:07:04.546Z,990.58
2018-05-07T05:08:11.650Z,990.56
2018-05-07T05:09:18.374Z,990.50
2018-05-07T05:10:25.225Z,990.56
2018-05-07T05:11:32.006Z,990.56
2018-05-07T05:12:38.735Z,990.50
2018-05-07T05:13:45.470Z,990.48
2018-05-07T05:14:52.322Z,990.50
2018-05-07T05:15:59.041Z,990.50
2018-05-07T05:17:05.790Z,990.57
2018-05-07T05:18:12.523Z,990.56
2018-05-07T05:19:19.351Z,990.50
2018-05-07T05:20:26.114Z,990.45
2018-05-07T05:21:33.021Z,990.54
2018-05-07T05:22:39.703Z,990.55
2018-05-07T05:23:46.583Z,990.46
2018-05-07T05:24:53.287Z,990.56
2018-05-07T05:26:00.027Z,990.44
2018-05-07T05:27:06.806Z,990.51
2018-05-07T05:28:13.559Z,990.58
2018-05-07T05:29:20.391Z,990.52
2018-05-07T05:30:27.135Z,990.58
2018-05-07T05:31:33.934Z,990.45
2018-05-07T05:32:40.750Z,990.52
2018-05-07T05:33:47.526Z,990.42
2018-05-07T05:34:54.286Z,990.52
2018-05-07T05:36:01.082Z,990.53
2018-05-07T05:37:07.826Z,990.60
2018-05-07T05:38:14.523Z,990.54
2018-05-07T05:39:21.307Z,990.55
2018-05-07T05:40:28.085Z,990.48
2018-05-07T05:41:35.078Z,990.55
2018-05-07T05:42:41.826Z,990.59
2018-05-07T05:43:48.574Z,990.48
2018-05-07T05:44:55.598Z,990.55
2018-05-07T05:46:02.326Z,990.54
2018-05-07T05:47:09.070Z,990.62
2018-05-07T05:48:16.106Z,990.50
2018-05-07T05:49:22.913Z,990.55
2018-05-07T05:50:29.622Z,990.51
2018-05-07T05:51:36.347Z,990.60
2018-05-07T05:52:43.171Z,990.56
2018-05-07T05:53:49.891Z,990.45
2018-05-07T05:54:56.623Z,990.51
2018-05-07T05:56:03.344Z,990.50
2018-05-07T05:57:10.091Z,990.47
2018-05-07T05:58:16.783Z,990.46
2018-05-07T05:59:23.631Z,990.48
2018-05-07T06:00:30.338Z,990.55
2018-05-07T06:01:37.078Z,990.50
2018-05-07T06:02:43.807Z,990.52
2018-05-07T06:03:50.719Z,990.49
2018-05-07T06:04:57.391Z,990.54
2018-05-07T06:06:04.203Z,990.54
2018-05-07T06:07:10.971Z,990.48
2018-05-07T06:08:17.750Z,990.47
2018-05-07T06:09:24.559Z,990.51
2018-05-07T06:10:31.299Z,990.57
2018-05-07T06:11:38.117Z,990.55
2018-05-07T06:12:45.010Z,990.59
2018-05-07T06:13:51.838Z,990.67
2018-05-07T06:14:58.798Z,990.62
2018-05-07T06:16:05.494Z,990.66
2018-05-07T06:17:12.253Z,990.65
2018-05-07T06:18:19.035Z,990.64
2018-05-07T06:19:25.983Z,990.63
2018-05-07T06:20:32.748Z,990.56
2018-05-07T06:21:39.515Z,990.64
2018-05-07T06:22:46.269Z,990.56
2018-05-07T06:23:53.085Z,990.54
2018-05-07T06:24:59.884Z,990.55
2018-05-07T06:26:06.714Z,990.48
2018-05-07T06:27:13.632Z,990.54
2018-05-07T06:28:20.490Z,990.55
2018-05-07T06:29:27.276Z,990.61
2018-05-07T06:30:34.158Z,990.59
2018-05-07T06:31:40.974Z,990.56
2018-05-07T06:32:47.734Z,990.59
2018-05-07T06:33:54.538Z,990.55
2018-05-07T06:35:01.405Z,990.61
2018-05-07T06:36:08.355Z,990.64
2018-05-07T06:37:15.143Z,990.65
2018-05-07T06:38:21.948Z,990.62
2018-05-07T06:39:28.835Z,990.68
2018-05-07T06:40:35.591Z,990.64
2018-05-07T06:41:42.335Z,990.61
2018-05-07T06:42:49.134Z,990.58
2018-05-07T06:43:55.973Z,990.57
2018-05-07T06:45:02.753Z,990.65
2018-05-07T06:46:09.514Z,990.63
2018-05-07T06:47:16.299Z,990.65
2018-05-07T06:48:23.226Z,990.65
2018-05-07T06:49:30.337Z,990.66
2018-05-07T06:50:37.110Z,990.71
2018-05-07T06:51:43.886Z,990.63
2018-05-07T06:52:50.680Z,990.65
2018-05-07T06:53:57.456Z,990.64
2018-05-07T06:55:04.249Z,990.64
2018-05-07T06:56:11.023Z,990.58
2018-05-07T06:57:17.799Z,990.57
2018-05-07T06:58:24.546Z,990.50
2018-05-07T06:59:31.385Z,990.57
2018-05-07T07:00:38.270Z,990.53
2018-05-07T07:01:45.130Z,990.50
2018-05-07T07:02:52.014Z,990.49
2018-05-07T07:03:58.750Z,990.49
2018-05-07T07:05:05.487Z,990.56
2018-05-07T07:06:12.214Z,990.53
2018-05-07T07:07:19.240Z,990.49
2018-05-07T07:08:26.047Z,990.52
2018-05-07T07:09:32.672Z,990.54
2018-05-07T07:10:39.399Z,990.57
2018-05-07T07:11:46.090Z,990.51
2018-05-07T07:12:52.827Z,990.50
2018-05-07T07:13:59.699Z,990.48
2018-05-07T07:15:06.442Z,990.51
2018-05-07T07:16:13.187Z,990.41
2018-05-07T07:17:19.879Z,990.39
2018-05-07T07:18:26.642Z,990.43
2018-05-07T07:19:33.502Z,990.42
2018-05-07T07:20:40.346Z,990.48
2018-05-07T07:21:47.135Z,990.42
2018-05-07T07:22:53.787Z,990.38
2018-05-07T07:24:00.614Z,990.40
2018-05-07T07:25:07.317Z,990.36
2018-05-07T07:26:14.054Z,990.33
2018-05-07T07:27:20.822Z,990.36
2018-05-07T07:28:27.538Z,990.30
2018-05-07T07:29:34.274Z,990.32
2018-05-07T07:30:41.138Z,990.34
2018-05-07T07:31:47.933Z,990.33
2018-05-07T07:32:54.874Z,990.35
2018-05-07T07:34:01.722Z,990.38
2018-05-07T07:35:08.647Z,990.37
2018-05-07T07:36:15.492Z,990.33
2018-05-07T07:37:22.291Z,990.30
2018-05-07T07:38:28.986Z,990.33
2018-05-07T07:39:35.823Z,990.31
2018-05-07T07:40:42.550Z,990.33
2018-05-07T07:41:52.634Z,990.38
2018-05-07T07:42:56.072Z,990.31
2018-05-07T07:44:02.793Z,990.31
2018-05-07T07:45:09.626Z,990.33
2018-05-07T07:46:16.370Z,990.36
2018-05-07T07:47:23.095Z,990.41
2018-05-07T07:48:29.830Z,990.46
2018-05-07T07:49:36.598Z,990.42
2018-05-07T07:50:43.393Z,990.40
2018-05-07T07:51:50.227Z,990.40
2018-05-07T07:52:56.964Z,990.43
2018-05-07T07:54:03.794Z,990.36
2018-05-07T07:55:10.670Z,990.43
2018-05-07T07:56:17.378Z,990.38
2018-05-07T07:57:24.132Z,990.35
2018-05-07T07:58:30.954Z,990.40
2018-05-07T07:59:37.686Z,990.38
2018-05-07T08:00:44.479Z,990.26
2018-05-07T08:01:51.207Z,990.36
2018-05-07T08:02:58.154Z,990.32
2018-05-07T08:04:05.018Z,990.34
2018-05-07T08:05:11.908Z,990.27
2018-05-07T08:06:18.674Z,990.34
2018-05-07T08:07:25.474Z,990.29
2018-05-07T08:08:32.211Z,990.32
2018-05-07T08:09:39.014Z,990.39
2018-05-07T08:10:47.174Z,990.34
2018-05-07T08:11:52.552Z,990.32
2018-05-07T08:12:59.482Z,990.32
2018-05-07T08:14:06.306Z,990.34
2018-05-07T08:15:13.091Z,990.34
2018-05-07T08:16:19.938Z,990.37
2018-05-07T08:17:26.889Z,990.35
2018-05-07T08:18:33.788Z,990.39
2018-05-07T08:19:40.512Z,990.31
2018-05-07T08:20:47.262Z,990.40
2018-05-07T08:21:54.019Z,990.30
2018-05-07T08:23:00.846Z,990.29
2018-05-07T08:24:07.643Z,990.28
2018-05-07T08:25:14.403Z,990.23
2018-05-07T08:26:21.310Z,990.38
2018-05-07T08:27:28.138Z,990.26
2018-05-07T08:28:34.972Z,990.28
2018-05-07T08:29:41.788Z,990.32
2018-05-07T08:30:48.622Z,990.36
2018-05-07T08:31:55.410Z,990.33
2018-05-07T08:33:02.330Z,990.32
2018-05-07T08:34:09.098Z,990.20
2018-05-07T08:35:16.107Z,990.37
2018-05-07T08:36:22.916Z,990.31
2018-05-07T08:37:30.007Z,990.31
2018-05-07T08:38:36.843Z,990.25
2018-05-07T08:39:43.715Z,990.32
2018-05-07T08:40:51.018Z,990.20
2018-05-07T08:41:57.375Z,990.21
2018-05-07T08:43:04.159Z,990.23
2018-05-07T08:44:10.898Z,990.22
2018-05-07T08:45:17.698Z,990.26
2018-05-07T08:46:24.451Z,990.23
2018-05-07T08:47:31.251Z,990.22
2018-05-07T08:48:38.054Z,990.15
2018-05-07T08:49:44.834Z,990.19
2018-05-07T08:50:51.747Z,990.19
2018-05-07T08:51:58.446Z,990.13
2018-05-07T08:53:05.264Z,990.07
2018-05-07T08:54:11.990Z,990.10
2018-05-07T08:55:18.802Z,990.14
2018-05-07T08:56:25.631Z,990.18
2018-05-07T08:57:32.383Z,990.18
2018-05-07T08:58:40.015Z,990.18
2018-05-07T08:59:45.897Z,990.19
2018-05-07T09:00:52.650Z,990.15
2018-05-07T09:01:59.406Z,990.13
2018-05-07T09:03:06.170Z,990.15
2018-05-07T09:04:13.004Z,990.12
2018-05-07T09:05:19.775Z,990.12
2018-05-07T09:06:26.555Z,990.07
2018-05-07T09:07:33.332Z,990.09
2018-05-07T09:08:39.965Z,990.12
2018-05-07T09:09:47.788Z,990.13
2018-05-07T09:10:53.589Z,990.13
2018-05-07T09:12:00.328Z,990.22
2018-05-07T09:13:07.092Z,990.10
2018-05-07T09:14:13.881Z,990.10
2018-05-07T09:15:20.640Z,990.16
2018-05-07T09:16:27.392Z,990.09
2018-05-07T09:17:34.347Z,990.04
2018-05-07T09:18:41.136Z,990.02
2018-05-07T09:19:47.934Z,990.06
2018-05-07T09:20:54.687Z,990.00
2018-05-07T09:22:01.466Z,990.04
2018-05-07T09:23:08.157Z,990.06
2018-05-07T09:24:14.870Z,990.12
2018-05-07T09:25:21.594Z,990.05
2018-05-07T09:26:28.316Z,990.10
2018-05-07T09:27:35.014Z,990.01
2018-05-07T09:28:41.713Z,990.05
2018-05-07T09:29:48.534Z,990.00
2018-05-07T09:30:55.258Z,990.02
2018-05-07T09:32:03.077Z,990.04
2018-05-07T09:33:08.833Z,989.99
2018-05-07T09:34:15.666Z,990.04
2018-05-07T09:35:22.449Z,990.00
2018-05-07T09:36:29.198Z,989.96
2018-05-07T09:37:35.901Z,989.96
2018-05-07T09:38:42.607Z,989.96
2018-05-07T09:39:49.421Z,989.95
2018-05-07T09:40:56.139Z,989.90
2018-05-07T09:42:02.877Z,989.96
2018-05-07T09:43:09.672Z,989.99
2018-05-07T09:44:16.374Z,989.91
2018-05-07T09:45:23.294Z,990.03
2018-05-07T09:46:30.187Z,989.95
2018-05-07T09:47:37.006Z,989.92
2018-05-07T09:48:43.794Z,989.94
2018-05-07T09:49:50.674Z,989.95
2018-05-07T09:50:57.490Z,989.89
2018-05-07T09:52:04.186Z,989.93
2018-05-07T09:53:10.896Z,989.86
2018-05-07T09:54:17.595Z,989.86
2018-05-07T09:55:24.353Z,989.90
2018-05-07T09:56:31.049Z,989.94
2018-05-07T09:57:37.911Z,989.91
2018-05-07T09:58:44.758Z,989.92
2018-05-07T09:59:51.753Z,989.88
2018-05-07T10:00:58.526Z,989.92
2018-05-07T10:02:05.241Z,989.99
2018-05-07T10:03:11.935Z,989.86
2018-05-07T10:04:18.625Z,989.87
2018-05-07T10:05:25.363Z,989.95
2018-05-07T10:06:32.201Z,989.85
2018-05-07T10:07:39.291Z,989.89
2018-05-07T10:08:46.093Z,989.87
2018-05-07T10:09:53.102Z,989.89
2018-05-07T10:10:59.853Z,989.81
2018-05-07T10:12:06.595Z,989.90
2018-05-07T10:13:13.313Z,989.81
2018-05-07T10:14:20.026Z,989.81
2018-05-07T10:15:26.845Z,989.76
2018-05-07T10:16:33.587Z,989.77
2018-05-07T10:17:40.369Z,989.77
2018-05-07T10:18:47.374Z,989.79
2018-05-07T10:19:54.132Z,989.67
2018-05-07T10:21:00.896Z,989.71
2018-05-07T10:22:07.975Z,989.69
2018-05-07T10:23:14.679Z,989.72
2018-05-07T10:24:21.481Z,989.77
2018-05-07T10:25:28.222Z,989.79
2018-05-07T10:26:35.050Z,989.66
2018-05-07T10:27:41.799Z,989.66
2018-05-07T10:28:48.550Z,989.62
2018-05-07T10:29:55.395Z,989.66
2018-05-07T10:31:02.094Z,989.57
2018-05-07T10:32:08.885Z,989.62
2018-05-07T10:33:15.649Z,989.62
2018-05-07T10:34:22.426Z,989.61
2018-05-07T10:35:29.390Z,989.55
2018-05-07T10:36:36.126Z,989.55
2018-05-07T10:37:42.958Z,989.56
2018-05-07T10:38:49.979Z,989.62
2018-05-07T10:39:56.692Z,989.43
2018-05-07T10:41:03.437Z,989.51
2018-05-07T10:42:10.180Z,989.54
2018-05-07T10:43:16.974Z,989.45
2018-05-07T10:44:23.783Z,989.45
2018-05-07T10:45:30.535Z,989.49
2018-05-07T10:46:37.239Z,989.46
2018-05-07T10:47:44.029Z,989.45
2018-05-07T10:48:50.738Z,989.38
2018-05-07T10:49:57.427Z,989.38
2018-05-07T10:51:04.174Z,989.38
2018-05-07T10:52:11.326Z,989.33
2018-05-07T10:53:18.105Z,989.31
2018-05-07T10:54:24.894Z,989.31
2018-05-07T10:55:31.662Z,989.34
2018-05-07T10:56:38.398Z,989.30
2018-05-07T10:57:45.098Z,989.29
2018-05-07T10:58:51.841Z,989.29
2018-05-07T10:59:58.566Z,989.24
2018-05-07T11:01:05.370Z,989.29
2018-05-07T11:02:12.063Z,989.22
2018-05-07T11:03:18.884Z,989.19
2018-05-07T11:04:25.620Z,989.21
2018-05-07T11:05:32.318Z,989.13
2018-05-07T11:06:39.134Z,989.16
2018-05-07T11:07:45.911Z,989.08
2018-05-07T11:08:52.663Z,989.03
2018-05-07T11:09:59.408Z,989.01
2018-05-07T11:11:06.254Z,988.98
2018-05-07T11:12:13.011Z,989.03
2018-05-07T11:13:19.847Z,988.99
2018-05-07T11:14:26.707Z,988.96
2018-05-07T11:15:33.467Z,989.01
2018-05-07T11:16:40.258Z,988.96
2018-05-07T11:17:47.034Z,988.96
2018-05-07T11:18:53.991Z,988.95
2018-05-07T11:20:00.619Z,988.92
2018-05-07T11:21:07.467Z,988.92
2018-05-07T11:22:14.286Z,988.92
2018-05-07T11:23:21.087Z,988.94
2018-05-07T11:24:27.867Z,988.95
2018-05-07T11:25:34.736Z,988.94
2018-05-07T11:26:41.647Z,988.83
2018-05-07T11:27:48.770Z,988.93
2018-05-07T11:28:55.751Z,988.87
2018-05-07T11:30:02.547Z,988.90
2018-05-07T11:31:09.426Z,988.88
2018-05-07T11:32:16.385Z,988.84
2018-05-07T11:33:23.395Z,988.87
2018-05-07T11:34:30.342Z,988.92
2018-05-07T11:35:37.131Z,988.91
2018-05-07T11:36:43.923Z,988.84
2018-05-07T11:37:50.785Z,988.81
2018-05-07T11:38:57.578Z,988.81
2018-05-07T11:40:04.346Z,988.81
2018-05-07T11:41:11.085Z,988.75
2018-05-07T11:42:17.847Z,988.77
2018-05-07T11:43:24.710Z,988.70
2018-05-07T11:44:31.486Z,988.75
2018-05-07T11:45:38.266Z,988.70
2018-05-07T11:46:45.048Z,988.68
2018-05-07T11:47:51.910Z,988.70
2018-05-07T11:48:58.694Z,988.68
2018-05-07T11:50:05.463Z,988.57
2018-05-07T11:51:12.321Z,988.62
2018-05-07T11:52:19.071Z,988.61
2018-05-07T11:53:25.855Z,988.60
2018-05-07T11:54:32.754Z,988.56
2018-05-07T11:55:39.553Z,988.60
2018-05-07T11:56:46.320Z,988.61
2018-05-07T11:57:54.093Z,988.58
2018-05-07T11:58:59.883Z,988.64
2018-05-07T12:00:06.667Z,988.62
2018-05-07T12:01:13.495Z,988.54
2018-05-07T12:02:20.347Z,988.51
2018-05-07T12:03:27.135Z,988.55
2018-05-07T12:04:33.978Z,988.47
2018-05-07T12:05:40.770Z,988.52
2018-05-07T12:06:47.530Z,988.52
2018-05-07T12:07:54.306Z,988.53
2018-05-07T12:09:01.099Z,988.52
2018-05-07T12:10:08.055Z,988.60
2018-05-07T12:11:14.938Z,988.47
2018-05-07T12:12:21.684Z,988.45
2018-05-07T12:13:28.682Z,988.51
2018-05-07T12:14:35.495Z,988.49
2018-05-07T12:15:42.327Z,988.51
2018-05-07T12:16:49.003Z,988.48
2018-05-07T12:17:55.779Z,988.40
2018-05-07T12:19:02.571Z,988.44
2018-05-07T12:20:09.382Z,988.41
2018-05-07T12:21:16.131Z,988.42
2018-05-07T12:22:23.274Z,988.43
2018-05-07T12:23:29.996Z,988.43
2018-05-07T12:24:36.703Z,988.45
2018-05-07T12:25:43.526Z,988.37
2018-05-07T12:26:50.248Z,988.35
2018-05-07T12:27:56.982Z,988.36
2018-05-07T12:29:03.695Z,988.31
2018-05-07T12:30:10.423Z,988.36
2018-05-07T12:31:18.439Z,988.32
2018-05-07T12:32:24.150Z,988.37
2018-05-07T12:33:30.874Z,988.39
2018-05-07T12:34:37.694Z,988.37
2018-05-07T12:35:44.425Z,988.32
2018-05-07T12:36:51.194Z,988.27
2018-05-07T12:37:57.910Z,988.25
2018-05-07T12:39:04.698Z,988.32
2018-05-07T12:40:11.473Z,988.28
2018-05-07T12:41:18.203Z,988.24
2018-05-07T12:42:24.938Z,988.27
2018-05-07T12:43:31.717Z,988.23
2018-05-07T12:44:38.635Z,988.28
2018-05-07T12:45:45.415Z,988.28
2018-05-07T12:46:52.260Z,988.22
2018-05-07T12:47:58.960Z,988.15
2018-05-07T12:49:05.788Z,988.23
2018-05-07T12:50:12.507Z,988.16
2018-05-07T12:51:19.388Z,988.10
2018-05-07T12:52:26.344Z,988.09
2018-05-07T12:53:33.015Z,988.09
2018-05-07T12:54:39.934Z,988.17
2018-05-07T12:55:46.782Z,988.02
2018-05-07T12:56:53.516Z,988.06
2018-05-07T12:58:00.215Z,988.02
2018-05-07T12:59:07.092Z,987.99
2018-05-07T13:00:13.844Z,987.96
2018-05-07T13:01:20.615Z,988.00
2018-05-07T13:02:27.497Z,988.01
2018-05-07T13:03:34.406Z,987.96
2018-05-07T13:04:41.110Z,987.95
2018-05-07T13:05:47.847Z,987.96
2018-05-07T13:06:54.770Z,987.91
2018-05-07T13:08:01.486Z,987.92
2018-05-07T13:09:08.294Z,987.94
2018-05-07T13:10:15.100Z,987.91
2018-05-07T13:11:21.914Z,987.99
2018-05-07T13:12:28.723Z,987.91
2018-05-07T13:13:35.498Z,987.91
2018-05-07T13:14:42.222Z,987.93
2018-05-07T13:15:49.019Z,987.84
2018-05-07T13:16:55.943Z,987.82
2018-05-07T13:18:02.787Z,987.81
2018-05-07T13:19:09.759Z,987.83
2018-05-07T13:20:16.975Z,987.81
2018-05-07T13:21:23.937Z,987.78
2018-05-07T13:22:30.844Z,987.69
2018-05-07T13:23:37.778Z,987.87
2018-05-07T13:24:44.656Z,987.73
2018-05-07T13:25:51.540Z,987.71
2018-05-07T13:26:58.448Z,987.67
2018-05-07T13:28:05.383Z,987.69
2018-05-07T13:29:12.311Z,987.69
2018-05-07T13:30:19.259Z,987.69
2018-05-07T13:31:26.089Z,987.64
2018-05-07T13:32:33.700Z,987.69
2018-05-07T13:33:40.691Z,987.68
2018-05-07T13:34:46.757Z,987.66
2018-05-07T13:35:53.375Z,987.63
2018-05-07T13:37:01.332Z,987.64
2018-05-07T13:38:07.305Z,987.69
2018-05-07T13:39:14.266Z,987.64
2018-05-07T13:40:21.095Z,987.63
2018-05-07T13:41:27.960Z,987.62
2018-05-07T13:42:34.721Z,987.54
2018-05-07T13:43:42.416Z,987.56
2018-05-07T13:44:48.569Z,987.65
2018-05-07T13:45:55.920Z,987.61
2018-05-07T13:47:02.403Z,987.55
2018-05-07T13:48:09.222Z,987.60
2018-05-07T13:49:18.887Z,987.56
2018-05-07T13:50:23.252Z,987.58
2018-05-07T13:51:30.126Z,987.47
2018-05-07T13:52:37.321Z,987.50
2018-05-07T13:53:43.927Z,987.48
2018-05-07T13:54:50.860Z,987.42